Terminal Aerodrome Forecast
Issued by NWS

Home | Current Version | Previous Version | Text Only | Print | Product List | Glossary On
Versions: 1 2 3 4 5 6 7 8 9 10 11 12 13 14 15 16 17 18 19 20 21 22 23 24 25 26 27 28 29 30 31 32 33 34 35 36 37 38 39 40 41 42
000
FTUS45 KBOU 281120
TAFBJC
TAF
KBJC 281120Z 2812/2912 29008KT P6SM SCT100 SCT220
     FM281400 VRB04KT P6SM SCT100 BKN200
     FM281900 05007KT P6SM SCT100 BKN200
     FM290300 28006KT P6SM SCT090 BKN180
     FM290900 30012KT P6SM SCT050 BKN080=

USA.gov is the U.S. government's official web portal to all federal, state and local government web resources and services.